sensor_id;sensor_type;location;lat;lon;timestamp;pressure;altitude;pressure_sealevel;temperature;humidity
60099;BME280;62818;49.394;8.686;2023-07-20T00:00:50;100160.75;;;20.97;53.73
60099;BME280;62818;49.394;8.686;2023-07-20T00:01:53;100158.28;;;21.12;53.82
60099;BME280;62818;49.394;8.686;2023-07-20T00:03:09;100155.00;;;21.10;54.21
60099;BME280;62818;49.394;8.686;2023-07-20T00:04:16;100160.63;;;21.08;54.45
60099;BME280;62818;49.394;8.686;2023-07-20T00:05:17;100159.84;;;21.08;53.59
60099;BME280;62818;49.394;8.686;2023-07-20T00:06:25;100161.66;;;20.86;54.21
60099;BME280;62818;49.394;8.686;2023-07-20T00:07:27;100157.97;;;20.92;54.76
60099;BME280;62818;49.394;8.686;2023-07-20T00:08:28;100166.66;;;20.77;54.29
60099;BME280;62818;49.394;8.686;2023-07-20T00:09:29;100170.72;;;20.80;54.55
60099;BME280;62818;49.394;8.686;2023-07-20T00:10:29;100160.25;;;20.83;53.98
60099;BME280;62818;49.394;8.686;2023-07-20T00:11:30;100169.16;;;20.84;54.32
60099;BME280;62818;49.394;8.686;2023-07-20T00:12:30;100175.47;;;20.73;54.73
60099;BME280;62818;49.394;8.686;2023-07-20T00:13:31;100177.66;;;20.76;54.68
60099;BME280;62818;49.394;8.686;2023-07-20T00:14:31;100170.72;;;20.80;54.14
60099;BME280;62818;49.394;8.686;2023-07-20T00:15:32;100172.94;;;20.66;54.69
60099;BME280;62818;49.394;8.686;2023-07-20T00:16:33;100174.38;;;20.74;54.74
60099;BME280;62818;49.394;8.686;2023-07-20T00:17:33;100171.69;;;20.74;54.56
60099;BME280;62818;49.394;8.686;2023-07-20T00:18:34;100174.34;;;20.68;54.61
60099;BME280;62818;49.394;8.686;2023-07-20T00:19:34;100170.47;;;20.64;55.04
60099;BME280;62818;49.394;8.686;2023-07-20T00:20:35;100173.34;;;20.75;54.57
60099;BME280;62818;49.394;8.686;2023-07-20T00:21:36;100176.75;;;20.87;54.51
60099;BME280;62818;49.394;8.686;2023-07-20T00:22:37;100170.63;;;21.08;54.84
60099;BME280;62818;49.394;8.686;2023-07-20T00:23:38;100178.31;;;20.83;54.52
60099;BME280;62818;49.394;8.686;2023-07-20T00:24:38;100174.97;;;20.76;54.73
60099;BME280;62818;49.394;8.686;2023-07-20T00:25:39;100170.88;;;20.73;54.85
60099;BME280;62818;49.394;8.686;2023-07-20T00:26:39;100169.66;;;20.97;55.27
60099;BME280;62818;49.394;8.686;2023-07-20T00:27:40;100178.69;;;20.91;54.07
60099;BME280;62818;49.394;8.686;2023-07-20T00:28:40;100170.47;;;20.64;54.91
60099;BME280;62818;49.394;8.686;2023-07-20T00:29:41;100169.66;;;20.47;55.31
60099;BME280;62818;49.394;8.686;2023-07-20T00:30:41;100171.53;;;20.47;55.45
60099;BME280;62818;49.394;8.686;2023-07-20T00:31:42;100174.59;;;20.50;55.80
60099;BME280;62818;49.394;8.686;2023-07-20T00:32:44;100171.69;;;20.40;56.08
60099;BME280;62818;49.394;8.686;2023-07-20T00:33:45;100175.31;;;20.46;55.82
60099;BME280;62818;49.394;8.686;2023-07-20T00:34:46;100176.94;;;20.47;55.74
60099;BME280;62818;49.394;8.686;2023-07-20T00:35:46;100175.28;;;20.29;56.47
60099;BME280;62818;49.394;8.686;2023-07-20T00:36:47;100172.94;;;20.49;56.10
60099;BME280;62818;49.394;8.686;2023-07-20T00:37:49;100174.97;;;20.42;56.48
60099;BME280;62818;49.394;8.686;2023-07-20T00:38:49;100173.44;;;20.46;56.22
60099;BME280;62818;49.394;8.686;2023-07-20T00:39:50;100174.59;;;20.50;56.15
60099;BME280;62818;49.394;8.686;2023-07-20T00:40:51;100181.00;;;20.49;56.02
60099;BME280;62818;49.394;8.686;2023-07-20T00:41:52;100173.91;;;20.43;56.17
60099;BME280;62818;49.394;8.686;2023-07-20T00:42:52;100176.63;;;20.43;56.48
60099;BME280;62818;49.394;8.686;2023-07-20T00:43:53;100173.66;;;20.45;56.30
60099;BME280;62818;49.394;8.686;2023-07-20T00:44:54;100177.44;;;20.77;55.46
60099;BME280;62818;49.394;8.686;2023-07-20T00:45:55;100181.66;;;20.56;55.84
60099;BME280;62818;49.394;8.686;2023-07-20T00:46:56;100185.22;;;20.95;55.81
60099;BME280;62818;49.394;8.686;2023-07-20T00:47:57;100179.09;;;21.00;54.71
60099;BME280;62818;49.394;8.686;2023-07-20T00:48:57;100178.31;;;20.49;55.77
60099;BME280;62818;49.394;8.686;2023-07-20T00:49:59;100185.50;;;20.44;56.42
60099;BME280;62818;49.394;8.686;2023-07-20T00:51:00;100177.44;;;20.44;56.43
60099;BME280;62818;49.394;8.686;2023-07-20T00:52:03;100178.38;;;20.38;56.63
60099;BME280;62818;49.394;8.686;2023-07-20T00:53:07;100179.88;;;20.45;57.23
60099;BME280;62818;49.394;8.686;2023-07-20T00:54:08;100176.94;;;20.47;56.25
60099;BME280;62818;49.394;8.686;2023-07-20T00:55:09;100180.69;;;20.79;55.82
60099;BME280;62818;49.394;8.686;2023-07-20T00:56:10;100180.28;;;20.71;56.42
60099;BME280;62818;49.394;8.686;2023-07-20T00:57:11;100181.66;;;20.56;56.33
60099;BME280;62818;49.394;8.686;2023-07-20T00:58:14;100180.03;;;20.39;56.90
60099;BME280;62818;49.394;8.686;2023-07-20T00:59:15;100181.25;;;20.31;56.90
60099;BME280;62818;49.394;8.686;2023-07-20T01:00:15;100183.47;;;20.34;56.74
60099;BME280;62818;49.394;8.686;2023-07-20T01:01:16;100184.13;;;20.75;56.40
60099;BME280;62818;49.394;8.686;2023-07-20T01:02:17;100184.59;;;20.38;57.22
60099;BME280;62818;49.394;8.686;2023-07-20T01:03:17;100183.13;;;20.47;56.47
60099;BME280;62818;49.394;8.686;2023-07-20T01:04:19;100189.72;;;20.73;56.72
60099;BME280;62818;49.394;8.686;2023-07-20T01:05:21;100193.66;;;20.65;56.63
60099;BME280;62818;49.394;8.686;2023-07-20T01:07:46;100184.53;;;20.33;57.12
60099;BME280;62818;49.394;8.686;2023-07-20T01:12:52;100192.50;;;20.28;57.48
60099;BME280;62818;49.394;8.686;2023-07-20T01:13:53;100189.66;;;20.35;57.35
60099;BME280;62818;49.394;8.686;2023-07-20T01:14:54;100182.34;;;20.19;57.41
60099;BME280;62818;49.394;8.686;2023-07-20T01:16:01;100186.31;;;20.00;58.35
60099;BME280;62818;49.394;8.686;2023-07-20T01:17:03;100186.16;;;20.06;58.75
60099;BME280;62818;49.394;8.686;2023-07-20T01:18:03;100187.78;;;20.07;58.42
60099;BME280;62818;49.394;8.686;2023-07-20T01:19:04;100191.97;;;20.15;57.88
60099;BME280;62818;49.394;8.686;2023-07-20T01:20:07;100187.97;;;20.17;58.10
60099;BME280;62818;49.394;8.686;2023-07-20T01:21:18;100185.38;;;19.94;58.57
60099;BME280;62818;49.394;8.686;2023-07-20T01:24:32;100185.81;;;20.03;58.88
60099;BME280;62818;49.394;8.686;2023-07-20T01:31:36;100185.56;;;20.32;58.20
60099;BME280;62818;49.394;8.686;2023-07-20T01:32:40;100185.34;;;20.50;58.44
60099;BME280;62818;49.394;8.686;2023-07-20T01:33:43;100180.59;;;20.24;58.99
60099;BME280;62818;49.394;8.686;2023-07-20T01:34:47;100184.72;;;20.15;59.08
60099;BME280;62818;49.394;8.686;2023-07-20T01:35:57;100180.47;;;20.19;59.11
60099;BME280;62818;49.394;8.686;2023-07-20T01:37:00;100175.72;;;20.10;59.21
60099;BME280;62818;49.394;8.686;2023-07-20T01:38:03;100186.16;;;20.06;59.65
60099;BME280;62818;49.394;8.686;2023-07-20T01:39:06;100183.47;;;20.06;60.20
60099;BME280;62818;49.394;8.686;2023-07-20T01:40:12;100174.16;;;20.25;59.96
60099;BME280;62818;49.394;8.686;2023-07-20T01:41:16;100177.59;;;20.54;59.01
60099;BME280;62818;49.394;8.686;2023-07-20T01:42:18;100173.25;;;20.36;59.22
60099;BME280;62818;49.394;8.686;2023-07-20T01:43:18;100172.91;;;19.88;59.98
60099;BME280;62818;49.394;8.686;2023-07-20T01:44:19;100178.22;;;20.28;60.33
60099;BME280;62818;49.394;8.686;2023-07-20T01:45:19;100183.78;;;20.21;60.19
60099;BME280;62818;49.394;8.686;2023-07-20T01:46:20;100178.97;;;19.95;60.25
60099;BME280;62818;49.394;8.686;2023-07-20T01:47:20;100177.13;;;19.84;61.43
60099;BME280;62818;49.394;8.686;2023-07-20T01:48:21;100180.50;;;20.36;60.31
60099;BME280;62818;49.394;8.686;2023-07-20T01:49:21;100179.22;;;20.55;59.28
60099;BME280;62818;49.394;8.686;2023-07-20T01:50:22;100184.88;;;20.09;60.17
60099;BME280;62818;49.394;8.686;2023-07-20T01:51:22;100179.25;;;19.82;61.53
60099;BME280;62818;49.394;8.686;2023-07-20T01:52:23;100177.22;;;19.61;61.43
60099;BME280;62818;49.394;8.686;2023-07-20T01:53:23;100175.63;;;19.76;62.45
60099;BME280;62818;49.394;8.686;2023-07-20T01:54:24;100183.94;;;20.64;59.68
60099;BME280;62818;49.394;8.686;2023-07-20T01:55:25;100176.53;;;20.10;60.25
60099;BME280;62818;49.394;8.686;2023-07-20T01:56:25;100177.09;;;20.24;59.86
60099;BME280;62818;49.394;8.686;2023-07-20T01:57:25;100171.25;;;20.15;60.83
60099;BME280;62818;49.394;8.686;2023-07-20T01:58:26;100176.31;;;20.40;59.60
60099;BME280;62818;49.394;8.686;2023-07-20T01:59:26;100178.56;;;20.48;58.94
60099;BME280;62818;49.394;8.686;2023-07-20T02:00:27;100179.00;;;20.40;59.65
60099;BME280;62818;49.394;8.686;2023-07-20T02:01:27;100182.13;;;20.87;58.61
60099;BME280;62818;49.394;8.686;2023-07-20T02:02:28;100181.47;;;20.13;60.04
60099;BME280;62818;49.394;8.686;2023-07-20T02:03:29;100176.28;;;20.56;59.09
60099;BME280;62818;49.394;8.686;2023-07-20T02:04:29;100170.91;;;20.40;58.98
60099;BME280;62818;49.394;8.686;2023-07-20T02:05:30;100178.34;;;20.05;59.96
60099;BME280;62818;49.394;8.686;2023-07-20T02:06:31;100175.34;;;19.89;60.63
60099;BME280;62818;49.394;8.686;2023-07-20T02:07:32;100168.13;;;20.35;59.88
60099;BME280;62818;49.394;8.686;2023-07-20T02:08:33;100168.94;;;20.52;59.41
60099;BME280;62818;49.394;8.686;2023-07-20T02:09:33;100172.44;;;20.86;58.40
60099;BME280;62818;49.394;8.686;2023-07-20T02:10:34;100165.97;;;21.03;57.96
60099;BME280;62818;49.394;8.686;2023-07-20T02:11:34;100180.50;;;20.86;58.01
60099;BME280;62818;49.394;8.686;2023-07-20T02:12:35;100184.44;;;20.95;57.88
60099;BME280;62818;49.394;8.686;2023-07-20T02:13:36;100177.78;;;21.02;57.88
60099;BME280;62818;49.394;8.686;2023-07-20T02:14:36;100176.25;;;21.06;57.56
60099;BME280;62818;49.394;8.686;2023-07-20T02:15:36;100174.13;;;20.92;58.33
60099;BME280;62818;49.394;8.686;2023-07-20T02:16:37;100183.88;;;20.59;58.41
60099;BME280;62818;49.394;8.686;2023-07-20T02:17:37;100172.91;;;19.88;61.62
60099;BME280;62818;49.394;8.686;2023-07-20T02:18:41;100173.91;;;19.98;61.71
60099;BME280;62818;49.394;8.686;2023-07-20T02:19:41;100177.44;;;19.71;62.29
60099;BME280;62818;49.394;8.686;2023-07-20T02:20:42;100181.03;;;19.37;63.50
60099;BME280;62818;49.394;8.686;2023-07-20T02:21:42;100182.22;;;19.17;64.33
60099;BME280;62818;49.394;8.686;2023-07-20T02:22:43;100174.97;;;19.06;65.77
60099;BME280;62818;49.394;8.686;2023-07-20T02:23:43;100175.41;;;19.27;65.27
60099;BME280;62818;49.394;8.686;2023-07-20T02:24:44;100176.06;;;20.13;63.22
60099;BME280;62818;49.394;8.686;2023-07-20T02:25:44;100171.88;;;20.34;61.33
60099;BME280;62818;49.394;8.686;2023-07-20T02:26:45;100177.00;;;20.07;62.22
60099;BME280;62818;49.394;8.686;2023-07-20T02:27:45;100173.75;;;19.49;63.42
60099;BME280;62818;49.394;8.686;2023-07-20T02:28:45;100173.81;;;19.65;64.66
60099;BME280;62818;49.394;8.686;2023-07-20T02:29:46;100183.81;;;19.81;64.15
60099;BME280;62818;49.394;8.686;2023-07-20T02:30:46;100185.09;;;20.07;63.59
60099;BME280;62818;49.394;8.686;2023-07-20T02:31:47;100181.94;;;20.55;61.56
60099;BME280;62818;49.394;8.686;2023-07-20T02:32:48;100178.06;;;20.67;60.79
60099;BME280;62818;49.394;8.686;2023-07-20T02:33:48;100190.31;;;20.75;60.40
60099;BME280;62818;49.394;8.686;2023-07-20T02:34:49;100181.09;;;20.21;61.73
60099;BME280;62818;49.394;8.686;2023-07-20T02:35:49;100179.63;;;20.02;62.43
60099;BME280;62818;49.394;8.686;2023-07-20T02:36:50;100184.38;;;20.56;61.38
60099;BME280;62818;49.394;8.686;2023-07-20T02:37:50;100184.94;;;20.58;60.56
60099;BME280;62818;49.394;8.686;2023-07-20T02:38:51;100181.84;;;20.50;61.06
60099;BME280;62818;49.394;8.686;2023-07-20T02:39:51;100187.22;;;20.05;61.73
60099;BME280;62818;49.394;8.686;2023-07-20T02:40:51;100182.13;;;19.64;63.64
60099;BME280;62818;49.394;8.686;2023-07-20T02:41:52;100183.50;;;19.38;64.92
60099;BME280;62818;49.394;8.686;2023-07-20T02:42:52;100194.63;;;19.98;64.34
60099;BME280;62818;49.394;8.686;2023-07-20T02:43:53;100184.56;;;19.65;64.18
60099;BME280;62818;49.394;8.686;2023-07-20T02:44:53;100189.19;;;19.81;63.51
60099;BME280;62818;49.394;8.686;2023-07-20T02:45:54;100188.88;;;19.78;64.29
60099;BME280;62818;49.394;8.686;2023-07-20T02:46:54;100192.38;;;20.07;63.11
60099;BME280;62818;49.394;8.686;2023-07-20T02:47:55;100181.84;;;19.77;63.79
60099;BME280;62818;49.394;8.686;2023-07-20T02:48:55;100188.69;;;20.24;62.85
60099;BME280;62818;49.394;8.686;2023-07-20T02:49:56;100192.78;;;20.43;61.71
60099;BME280;62818;49.394;8.686;2023-07-20T02:50:57;100184.69;;;19.59;64.26
60099;BME280;62818;49.394;8.686;2023-07-20T02:51:58;100185.97;;;18.93;67.72
60099;BME280;62818;49.394;8.686;2023-07-20T02:52:58;100191.13;;;18.83;68.76
60099;BME280;62818;49.394;8.686;2023-07-20T02:53:59;100191.81;;;18.79;68.84
60099;BME280;62818;49.394;8.686;2023-07-20T02:54:59;100183.63;;;19.08;67.63
60099;BME280;62818;49.394;8.686;2023-07-20T02:56:00;100189.09;;;19.13;67.58
60099;BME280;62818;49.394;8.686;2023-07-20T02:57:00;100189.94;;;18.79;68.36
60099;BME280;62818;49.394;8.686;2023-07-20T02:58:01;100189.56;;;19.22;68.26
60099;BME280;62818;49.394;8.686;2023-07-20T02:59:02;100196.16;;;19.66;65.55
60099;BME280;62818;49.394;8.686;2023-07-20T03:00:03;100199.38;;;19.40;67.08
60099;BME280;62818;49.394;8.686;2023-07-20T03:01:06;100192.41;;;19.67;65.90
60099;BME280;62818;49.394;8.686;2023-07-20T03:02:07;100200.19;;;19.52;65.77
60099;BME280;62818;49.394;8.686;2023-07-20T03:03:10;100189.34;;;19.75;65.36
60099;BME280;62818;49.394;8.686;2023-07-20T03:04:10;100190.38;;;19.74;64.97
60099;BME280;62818;49.394;8.686;2023-07-20T03:05:11;100193.47;;;19.94;64.68
60099;BME280;62818;49.394;8.686;2023-07-20T03:06:11;100192.03;;;20.03;64.03
60099;BME280;62818;49.394;8.686;2023-07-20T03:07:13;100194.94;;;20.30;63.43
60099;BME280;62818;49.394;8.686;2023-07-20T03:08:13;100185.91;;;20.36;62.59
60099;BME280;62818;49.394;8.686;2023-07-20T03:09:13;100184.50;;;19.60;64.77
60099;BME280;62818;49.394;8.686;2023-07-20T03:10:15;100183.34;;;19.33;65.76
60099;BME280;62818;49.394;8.686;2023-07-20T03:11:16;100186.28;;;19.20;67.35
60099;BME280;62818;49.394;8.686;2023-07-20T03:12:17;100192.47;;;19.44;66.92
60099;BME280;62818;49.394;8.686;2023-07-20T03:13:17;100186.44;;;18.79;69.15
60099;BME280;62818;49.394;8.686;2023-07-20T03:14:18;100188.19;;;18.96;68.79
60099;BME280;62818;49.394;8.686;2023-07-20T03:15:18;100181.94;;;19.31;68.24
60099;BME280;62818;49.394;8.686;2023-07-20T03:16:19;100181.84;;;19.25;67.53
60099;BME280;62818;49.394;8.686;2023-07-20T03:17:20;100194.84;;;19.68;65.96
60099;BME280;62818;49.394;8.686;2023-07-20T03:18:20;100188.06;;;19.94;65.03
60099;BME280;62818;49.394;8.686;2023-07-20T03:19:21;100195.22;;;20.00;64.18
60099;BME280;62818;49.394;8.686;2023-07-20T03:20:21;100183.63;;;19.71;64.76
60099;BME280;62818;49.394;8.686;2023-07-20T03:21:22;100192.22;;;19.34;65.78
60099;BME280;62818;49.394;8.686;2023-07-20T03:22:22;100184.78;;;19.12;67.86
60099;BME280;62818;49.394;8.686;2023-07-20T03:23:24;100186.09;;;18.87;68.97
60099;BME280;62818;49.394;8.686;2023-07-20T03:24:26;100182.69;;;19.03;68.97
60099;BME280;62818;49.394;8.686;2023-07-20T03:25:27;100192.28;;;19.73;65.71
60099;BME280;62818;49.394;8.686;2023-07-20T03:26:27;100194.31;;;19.83;65.44
60099;BME280;62818;49.394;8.686;2023-07-20T03:27:28;100197.28;;;19.18;67.55
60099;BME280;62818;49.394;8.686;2023-07-20T03:28:29;100188.53;;;19.11;67.29
60099;BME280;62818;49.394;8.686;2023-07-20T03:29:31;100197.28;;;18.84;68.93
60099;BME280;62818;49.394;8.686;2023-07-20T03:30:33;100199.75;;;18.85;69.97
60099;BME280;62818;49.394;8.686;2023-07-20T03:31:34;100192.75;;;18.61;70.17
60099;BME280;62818;49.394;8.686;2023-07-20T03:32:35;100193.31;;;18.52;71.01
60099;BME280;62818;49.394;8.686;2023-07-20T03:33:36;100199.69;;;18.39;71.47
60099;BME280;62818;49.394;8.686;2023-07-20T03:34:36;100201.41;;;18.33;71.97
60099;BME280;62818;49.394;8.686;2023-07-20T03:35:37;100197.88;;;18.33;71.77
60099;BME280;62818;49.394;8.686;2023-07-20T03:36:37;100198.66;;;18.52;71.33
60099;BME280;62818;49.394;8.686;2023-07-20T03:37:38;100201.13;;;18.53;71.62
60099;BME280;62818;49.394;8.686;2023-07-20T03:38:39;100207.81;;;18.44;71.34
60099;BME280;62818;49.394;8.686;2023-07-20T03:39:39;100197.69;;;18.34;71.93
60099;BME280;62818;49.394;8.686;2023-07-20T03:40:52;100199.59;;;18.45;71.38
60099;BME280;62818;49.394;8.686;2023-07-20T03:41:57;100202.09;;;18.70;70.93
60099;BME280;62818;49.394;8.686;2023-07-20T03:42:59;100207.69;;;18.57;70.66
60099;BME280;62818;49.394;8.686;2023-07-20T03:43:59;100213.19;;;18.44;70.23
60099;BME280;62818;49.394;8.686;2023-07-20T03:45:00;100206.28;;;19.12;68.60
60099;BME280;62818;49.394;8.686;2023-07-20T03:46:00;100207.00;;;18.96;68.98
60099;BME280;62818;49.394;8.686;2023-07-20T03:47:01;100207.91;;;19.37;67.03
60099;BME280;62818;49.394;8.686;2023-07-20T03:48:03;100206.50;;;19.22;66.92
60099;BME280;62818;49.394;8.686;2023-07-20T03:49:04;100204.72;;;19.28;67.67
60099;BME280;62818;49.394;8.686;2023-07-20T03:50:06;100211.75;;;19.06;68.11
60099;BME280;62818;49.394;8.686;2023-07-20T03:51:07;100212.34;;;19.19;68.37
60099;BME280;62818;49.394;8.686;2023-07-20T03:52:07;100213.41;;;19.81;65.83
60099;BME280;62818;49.394;8.686;2023-07-20T03:53:08;100215.47;;;19.63;65.60
60099;BME280;62818;49.394;8.686;2023-07-20T03:54:08;100217.63;;;19.38;65.69
60099;BME280;62818;49.394;8.686;2023-07-20T03:55:09;100212.69;;;19.46;65.80
60099;BME280;62818;49.394;8.686;2023-07-20T03:56:10;100217.94;;;19.53;66.09
60099;BME280;62818;49.394;8.686;2023-07-20T03:57:11;100215.94;;;19.60;66.06
60099;BME280;62818;49.394;8.686;2023-07-20T03:58:12;100217.69;;;19.54;66.13
60099;BME280;62818;49.394;8.686;2023-07-20T03:59:13;100214.56;;;19.34;66.42
60099;BME280;62818;49.394;8.686;2023-07-20T04:00:14;100225.78;;;19.08;67.86
60099;BME280;62818;49.394;8.686;2023-07-20T04:01:16;100222.75;;;18.81;68.60
60099;BME280;62818;49.394;8.686;2023-07-20T04:02:16;100220.88;;;18.82;68.79
60099;BME280;62818;49.394;8.686;2023-07-20T04:03:20;100227.16;;;18.53;70.10
60099;BME280;62818;49.394;8.686;2023-07-20T04:04:23;100229.41;;;18.67;70.15
60099;BME280;62818;49.394;8.686;2023-07-20T04:05:23;100222.13;;;19.25;68.43
60099;BME280;62818;49.394;8.686;2023-07-20T04:06:23;100222.03;;;18.86;69.00
60099;BME280;62818;49.394;8.686;2023-07-20T04:07:24;100226.84;;;18.42;70.92
60099;BME280;62818;49.394;8.686;2023-07-20T04:08:24;100223.25;;;18.37;71.34
60099;BME280;62818;49.394;8.686;2023-07-20T04:09:25;100236.53;;;18.32;71.55
60099;BME280;62818;49.394;8.686;2023-07-20T04:10:25;100233.53;;;18.10;71.90
60099;BME280;62818;49.394;8.686;2023-07-20T04:11:26;100244.72;;;18.37;71.63
60099;BME280;62818;49.394;8.686;2023-07-20T04:12:26;100234.44;;;18.34;72.30
60099;BME280;62818;49.394;8.686;2023-07-20T04:13:27;100243.88;;;18.36;71.81
60099;BME280;62818;49.394;8.686;2023-07-20T04:14:28;100242.13;;;18.42;72.31
60099;BME280;62818;49.394;8.686;2023-07-20T04:15:28;100227.97;;;18.53;71.58
60099;BME280;62818;49.394;8.686;2023-07-20T04:16:29;100243.88;;;18.78;70.70
60099;BME280;62818;49.394;8.686;2023-07-20T04:17:30;100234.91;;;18.95;69.44
60099;BME280;62818;49.394;8.686;2023-07-20T04:18:30;100240.41;;;19.00;70.04
60099;BME280;62818;49.394;8.686;2023-07-20T04:19:30;100235.94;;;18.71;70.22
60099;BME280;62818;49.394;8.686;2023-07-20T04:20:31;100239.53;;;18.54;71.12
60099;BME280;62818;49.394;8.686;2023-07-20T04:21:31;100242.94;;;18.72;70.92
60099;BME280;62818;49.394;8.686;2023-07-20T04:22:32;100236.41;;;18.80;71.16
60099;BME280;62818;49.394;8.686;2023-07-20T04:23:33;100238.84;;;18.70;70.94
60099;BME280;62818;49.394;8.686;2023-07-20T04:24:33;100244.34;;;18.63;71.19
60099;BME280;62818;49.394;8.686;2023-07-20T04:25:34;100251.69;;;18.38;71.94
60099;BME280;62818;49.394;8.686;2023-07-20T04:26:39;100242.31;;;18.47;72.05
60099;BME280;62818;49.394;8.686;2023-07-20T04:27:39;100247.34;;;18.55;71.61
60099;BME280;62818;49.394;8.686;2023-07-20T04:28:42;100238.03;;;18.69;71.56
60099;BME280;62818;49.394;8.686;2023-07-20T04:29:43;100244.34;;;18.63;70.89
60099;BME280;62818;49.394;8.686;2023-07-20T04:30:44;100244.25;;;18.81;70.71
60099;BME280;62818;49.394;8.686;2023-07-20T04:31:44;100254.00;;;18.53;71.22
60099;BME280;62818;49.394;8.686;2023-07-20T04:32:45;100253.94;;;18.11;72.78
60099;BME280;62818;49.394;8.686;2023-07-20T04:33:46;100251.69;;;18.38;72.31
60099;BME280;62818;49.394;8.686;2023-07-20T04:34:47;100247.50;;;18.42;72.09
60099;BME280;62818;49.394;8.686;2023-07-20T04:35:52;100253.34;;;18.39;72.46
60099;BME280;62818;49.394;8.686;2023-07-20T04:36:54;100251.78;;;18.31;73.06
60099;BME280;62818;49.394;8.686;2023-07-20T04:37:54;100249.22;;;18.66;71.44
60099;BME280;62818;49.394;8.686;2023-07-20T04:38:55;100254.53;;;18.96;70.15
60099;BME280;62818;49.394;8.686;2023-07-20T04:39:55;100255.13;;;19.09;69.81
60099;BME280;62818;49.394;8.686;2023-07-20T04:40:56;100253.78;;;18.77;70.52
60099;BME280;62818;49.394;8.686;2023-07-20T04:41:57;100250.53;;;18.87;70.96
60099;BME280;62818;49.394;8.686;2023-07-20T04:42:58;100256.91;;;18.51;71.94
60099;BME280;62818;49.394;8.686;2023-07-20T04:43:58;100249.91;;;18.50;72.10
60099;BME280;62818;49.394;8.686;2023-07-20T04:44:59;100256.47;;;18.77;70.80
60099;BME280;62818;49.394;8.686;2023-07-20T04:45:59;100252.16;;;18.65;71.88
60099;BME280;62818;49.394;8.686;2023-07-20T04:47:00;100260.66;;;18.62;71.09
60099;BME280;62818;49.394;8.686;2023-07-20T04:48:00;100253.34;;;18.80;71.86
60099;BME280;62818;49.394;8.686;2023-07-20T04:49:00;100254.91;;;18.46;72.20
60099;BME280;62818;49.394;8.686;2023-07-20T04:50:01;100252.19;;;18.35;72.96
60099;BME280;62818;49.394;8.686;2023-07-20T04:51:02;100250.81;;;18.14;73.27
60099;BME280;62818;49.394;8.686;2023-07-20T04:52:03;100256.13;;;18.74;72.96
60099;BME280;62818;49.394;8.686;2023-07-20T04:53:04;100251.38;;;18.87;70.63
60099;BME280;62818;49.394;8.686;2023-07-20T04:54:05;100253.94;;;18.82;70.86
60099;BME280;62818;49.394;8.686;2023-07-20T04:55:06;100250.78;;;18.85;71.09
60099;BME280;62818;49.394;8.686;2023-07-20T04:56:06;100246.00;;;19.10;69.62
60099;BME280;62818;49.394;8.686;2023-07-20T04:57:11;100252.09;;;19.41;69.04
60099;BME280;62818;49.394;8.686;2023-07-20T04:58:12;100251.81;;;18.84;69.89
60099;BME280;62818;49.394;8.686;2023-07-20T04:59:13;100249.94;;;18.73;70.62
60099;BME280;62818;49.394;8.686;2023-07-20T05:00:13;100244.22;;;18.70;71.30
60099;BME280;62818;49.394;8.686;2023-07-20T05:01:14;100251.38;;;18.87;70.87
60099;BME280;62818;49.394;8.686;2023-07-20T05:02:15;100249.03;;;18.91;70.82
60099;BME280;62818;49.394;8.686;2023-07-20T05:03:15;100250.66;;;19.03;70.12
60099;BME280;62818;49.394;8.686;2023-07-20T05:04:16;100243.09;;;19.12;69.91
60099;BME280;62818;49.394;8.686;2023-07-20T05:05:16;100242.13;;;19.53;69.42
60099;BME280;62818;49.394;8.686;2023-07-20T05:06:17;100244.13;;;19.46;68.59
60099;BME280;62818;49.394;8.686;2023-07-20T05:07:17;100244.13;;;19.22;69.23
60099;BME280;62818;49.394;8.686;2023-07-20T05:08:18;100241.56;;;19.28;69.23
60099;BME280;62818;49.394;8.686;2023-07-20T05:09:18;100243.22;;;19.05;69.35
60099;BME280;62818;49.394;8.686;2023-07-20T05:10:19;100240.59;;;19.57;68.20
60099;BME280;62818;49.394;8.686;2023-07-20T05:11:20;100237.59;;;19.42;67.35
60099;BME280;62818;49.394;8.686;2023-07-20T05:12:20;100239.69;;;19.05;68.75
60099;BME280;62818;49.394;8.686;2023-07-20T05:13:20;100235.28;;;18.99;69.67
60099;BME280;62818;49.394;8.686;2023-07-20T05:14:21;100239.47;;;19.06;69.58
60099;BME280;62818;49.394;8.686;2023-07-20T05:15:21;100236.53;;;18.96;69.71
60099;BME280;62818;49.394;8.686;2023-07-20T05:16:22;100234.09;;;19.30;69.36
60099;BME280;62818;49.394;8.686;2023-07-20T05:17:22;100232.91;;;19.49;68.21
60099;BME280;62818;49.394;8.686;2023-07-20T05:18:23;100242.00;;;19.01;69.34
60099;BME280;62818;49.394;8.686;2023-07-20T05:19:24;100238.06;;;19.15;68.92
60099;BME280;62818;49.394;8.686;2023-07-20T05:20:25;100235.91;;;19.64;67.83
60099;BME280;62818;49.394;8.686;2023-07-20T05:21:26;100240.84;;;19.44;67.73
60099;BME280;62818;49.394;8.686;2023-07-20T05:22:27;100244.38;;;19.44;68.68
60099;BME280;62818;49.394;8.686;2023-07-20T05:23:27;100239.38;;;19.36;67.10
60099;BME280;62818;49.394;8.686;2023-07-20T05:24:28;100236.78;;;19.81;67.01
60099;BME280;62818;49.394;8.686;2023-07-20T05:25:28;100241.34;;;19.41;67.48
60099;BME280;62818;49.394;8.686;2023-07-20T05:26:29;100242.25;;;19.58;67.12
60099;BME280;62818;49.394;8.686;2023-07-20T05:27:29;100240.16;;;19.37;67.79
60099;BME280;62818;49.394;8.686;2023-07-20T05:28:30;100237.59;;;19.18;68.85
60099;BME280;62818;49.394;8.686;2023-07-20T05:29:30;100236.28;;;19.21;68.79
60099;BME280;62818;49.394;8.686;2023-07-20T05:30:32;100245.06;;;19.16;69.80
60099;BME280;62818;49.394;8.686;2023-07-20T05:31:32;100243.28;;;19.57;68.41
60099;BME280;62818;49.394;8.686;2023-07-20T05:32:33;100239.66;;;19.28;68.65
60099;BME280;62818;49.394;8.686;2023-07-20T05:33:34;100241.88;;;19.54;67.87